• Join FlightAware (Why Join?)
  • Login
  • US Flag 
10:36PM EDT


 

Airport Tracker/Info


-or-


 

Live Flight TrackerFlight Track Log ✈ JIA2335 ✈ 24-Jun-2013 ✈ KPHL - KDAY

Flight Track Log - Related Links

Times and Time Zones

All times are in EDT time to prevent confusion due to time zone crossing. See the JIA2335 flight status page for this flight to view local times or setup timezone preferences in your user account.

Time Position Orientation Groundspeed Altitude Reporting Facility
EDT Latitude Longitude Course Direction KTS MPH feet Rate Location/Type
09:30AM 39.8667 -75.2833 270° West 160 184 800  Level Philadelphia TRACON
09:32AM 39.9037 -75.6017 285° West  Level FlightAware Approximate
09:32AM 39.8583 -75.4411 266° West 218 251 4,500  Level New York Center
09:33AM 39.9067 -75.7269 258° West  Level FlightAware Approximate
09:33AM 39.8819 -75.5319 289° West 246 283 7,000  Level New York Center
09:34AM 39.9001 -75.8547 270° West  Level FlightAware Approximate
09:34AM 39.9014 -75.6144 287° West 264 304 9,000  Level New York Center
09:35AM 39.9000 -75.9834 270° West  Level FlightAware Approximate
09:35AM 39.9158 -75.7239 280° West 271 312 11,300  Level New York Center
09:36AM 39.9139 -75.8183 268° West 289 333 12,900 1,560 Climbing New York Center
09:37AM 39.9128 -75.9375 269° West 300 345 14,400 1,500 Climbing New York Center
09:38AM 39.9122 -76.0456 270° West 319 367 15,900 1,680 Climbing New York Center
09:39AM 39.9083 -76.1781 268° West 329 379 17,800 1,560 Climbing New York Center
09:40AM 39.9111 -76.2947 272° West 329 379 19,100 1,200 Climbing New York Center
09:41AM 39.9158 -76.4142 273° West 329 379 20,300 1,200 Climbing New York Center
09:42AM 39.9206 -76.5364 273° West 329 379 21,500 1,080 Climbing New York Center
09:43AM 39.9247 -76.6586 273° West 334 384 22,500 960 Climbing New York Center
09:44AM 39.9311 -76.7836 274° West 339 390 23,500 840 Climbing New York Center
09:45AM 39.9369 -76.9114 273° West 350 403 24,300 780 Climbing New York Center
09:46AM 39.9406 -77.0389 272° West 355 409 25,100 780 Climbing New York Center
09:47AM 39.9461 -77.1694 273° West 355 409 25,900 720 Climbing New York Center
09:48AM 39.9517 -77.3000 273° West 361 415 26,600 660 Climbing New York Center
09:49AM 39.9544 -77.4358 272° West 372 428 27,300 660 Climbing New York Center
09:51AM 39.9672 -77.7442 273° West 366 421 28,800 600 Climbing Cleveland Center
09:52AM 39.9725 -77.8739 273° West 366 421 29,400 540 Climbing Cleveland Center
09:53AM 39.9756 -78.0067 272° West 366 421 29,900 480 Climbing Cleveland Center
09:54AM 39.9783 -78.1419 272° West 366 421 30,400 420 Climbing Cleveland Center
09:55AM 39.9828 -78.2531 273° West 366 421 30,800 420 Climbing Cleveland Center
09:57AM 39.9842 -78.5347 270° West 371 427 31,800 360 Climbing Cleveland Center
09:58AM 39.9864 -78.6700 271° West 371 427 32,000 60 Climbing Cleveland Center
09:59AM 39.9908 -78.8028 273° West 371 427 32,000  Level Cleveland Center
10:00AM 39.9928 -78.9408 271° West 377 434 32,000  Level Cleveland Center
10:01AM 39.9989 -79.0764 273° West 377 434 32,000  Level Cleveland Center
10:02AM 40.0006 -79.2092 271° West 377 434 32,000  Level Cleveland Center
10:03AM 40.0042 -79.3472 272° West 377 434 32,000  Level Cleveland Center
10:04AM 40.0056 -79.4828 271° West 382 440 32,000  Level Cleveland Center
10:05AM 40.0089 -79.6156 272° West 382 440 32,000  Level Cleveland Center
10:07AM 40.0011 -79.7919 267° West  Level FlightAware Approximate
10:07AM 40.0108 -79.8892 267° West 382 440 32,000  Level Cleveland Center
10:08AM 40.0136 -80.0247 272° West 382 440 32,000  Level Cleveland Center
10:09AM 40.0164 -80.1603 272° West 382 440 32,000  Level Cleveland Center
10:10AM 40.0167 -80.2958 270° West 382 440 32,000  Level Cleveland Center
10:11AM 40.0169 -80.4339 270° West 382 440 32,000  Level Cleveland Center
10:12AM 40.0172 -80.5831 270° West 382 440 32,000  Level Cleveland Center
10:13AM 40.0192 -80.7186 271° West 382 440 32,000  Level Cleveland Center
10:14AM 40.0231 -80.8569 272° West 382 440 32,000 -360 Level Cleveland Center
10:15AM 40.0292 -80.9719 274° West 376 433 31,300 -960 Descending Indianapolis Center
10:16AM 40.0425 -81.1297 276° West 370 426 30,100 -1,080 Descending Indianapolis Center
10:17AM 40.0517 -81.2639 275° West 367 422 29,100 -1,020 Descending Indianapolis Center
10:18AM 40.0636 -81.3967 277° West 365 420 28,100 -540 Descending Indianapolis Center
10:19AM 40.0742 -81.5306 276° West 367 422 28,000 -60 Descending Indianapolis Center
10:20AM 40.0850 -81.6678 276° West 373 429 28,000 -60 Level Indianapolis Center
10:21AM 40.1078 -81.8072 282° West 378 435 27,900 -540 Descending Indianapolis Center
10:22AM 40.1386 -81.9403 287° West 379 436 26,900 -1,020 Descending Indianapolis Center
10:23AM 40.1706 -82.0703 288° West 375 432 25,900 -1,020 Descending Indianapolis Center
10:24AM 40.2047 -82.1992 289° West 373 429 24,900 -1,020 Descending Indianapolis Center
10:25AM 40.2436 -82.3456 289° West 368 423 23,800 -1,020 Descending Indianapolis Center
10:26AM 40.2772 -82.4689 290° West 358 412 22,800 -1,020 Descending Indianapolis Center
10:27AM 40.3061 -82.5900 287° West 352 405 21,700 -1,020 Descending Indianapolis Center
10:29AM 40.2919 -82.7153 262° West 347 399 20,700 -1,020 Descending Indianapolis Center
10:30AM 40.2803 -82.8447 263° West 351 404 19,700 -960 Descending Indianapolis Center
10:31AM 40.2683 -82.9744 263° West 355 409 18,700 -960 Descending Indianapolis Center
10:32AM 40.2550 -83.1192 263° West 346 398 17,700 -1,260 Descending Indianapolis Center
10:33AM 40.2439 -83.2394 263° West 334 384 16,100 -1,560 Descending Indianapolis Center
10:34AM 40.2267 -83.3892 261° West 326 375 14,200 -1,500 Descending Indianapolis Center
10:35AM 40.2194 -83.4725 264° West 318 366 13,000 -1,380 Descending Indianapolis Center
10:36AM 40.2089 -83.5808 263° West 304 350 11,700 -1,260 Descending Indianapolis Center
10:37AM 40.1878 -83.6814 255° West 292 336 10,400 -1,440 Descending Indianapolis Center
10:38AM 40.1419 -83.7811 239° Southwest 275 316 8,800 -1,560 Descending Indianapolis Center
10:39AM 40.0992 -83.8608 235° Southwest 268 308 7,200 -1,560 Descending Indianapolis Center
10:40AM 40.0511 -83.9539 236° Southwest 255 293 5,300 -1,620 Descending Indianapolis Center
10:41AM 40.0175 -84.0131 233° Southwest 258 297 3,900 -1,440 Descending Indianapolis Center
10:42AM 39.9806 -84.0847 236° Southwest 248 285 2,700 -1,200 Descending Indianapolis Center